createdAt,value
2023-04-15T00:00:12.926Z,1220.00
2023-04-15T00:01:12.896Z,1222.00
2023-04-15T00:02:13.050Z,1215.00
2023-04-15T00:03:13.126Z,1217.00
2023-04-15T00:04:12.956Z,1229.00
2023-04-15T00:05:12.899Z,1215.00
2023-04-15T00:06:12.876Z,1220.00
2023-04-15T00:07:12.874Z,1210.00
2023-04-15T00:08:12.876Z,1198.00
2023-04-15T00:09:12.860Z,1204.00
2023-04-15T00:10:12.861Z,1211.00
2023-04-15T00:11:12.844Z,1196.00
2023-04-15T00:12:12.838Z,1195.00
2023-04-15T00:13:12.844Z,1202.00
2023-04-15T00:14:12.833Z,1207.00
2023-04-15T00:15:12.836Z,1208.00
2023-04-15T00:16:12.872Z,1184.00
2023-04-15T00:17:12.842Z,1204.00
2023-04-15T00:18:12.878Z,1207.00
2023-04-15T00:19:12.854Z,1196.00
2023-04-15T00:20:12.858Z,1193.00
2023-04-15T00:21:12.858Z,1208.00
2023-04-15T00:22:12.883Z,1211.00
2023-04-15T00:23:12.862Z,1189.00
2023-04-15T00:24:12.864Z,1206.00
2023-04-15T00:25:12.862Z,1190.00
2023-04-15T00:26:12.874Z,1195.00
2023-04-15T00:27:12.858Z,1206.00
2023-04-15T00:28:12.871Z,1200.00
2023-04-15T00:29:12.842Z,1201.00
2023-04-15T00:30:12.841Z,1203.00
2023-04-15T00:31:12.858Z,1203.00
2023-04-15T00:32:12.812Z,1202.00
2023-04-15T00:33:12.803Z,1184.00
2023-04-15T00:34:12.820Z,1169.00
2023-04-15T00:35:12.806Z,1192.00
2023-04-15T00:36:12.784Z,1185.00
2023-04-15T00:37:12.781Z,1187.00
2023-04-15T00:38:12.772Z,1186.00
2023-04-15T00:39:12.778Z,1189.00
2023-04-15T00:40:12.777Z,1205.00
2023-04-15T00:41:12.749Z,1195.00
2023-04-15T00:42:12.741Z,1182.00
2023-04-15T00:43:12.725Z,1171.00
2023-04-15T00:44:12.728Z,1163.00
2023-04-15T00:45:12.730Z,1171.00
2023-04-15T00:46:12.732Z,1178.00
2023-04-15T00:47:12.696Z,1185.00
2023-04-15T00:48:12.704Z,1192.00
2023-04-15T00:49:12.703Z,1166.00
2023-04-15T00:50:12.723Z,1174.00
2023-04-15T00:51:12.693Z,1162.00
2023-04-15T00:52:12.703Z,1159.00
2023-04-15T00:53:12.702Z,1160.00
2023-04-15T00:54:12.708Z,1153.00
2023-04-15T00:55:12.703Z,1160.00
2023-04-15T00:56:12.688Z,1161.00
2023-04-15T00:57:12.704Z,1158.00
2023-04-15T00:58:12.695Z,1152.00
2023-04-15T00:59:12.705Z,1168.00
2023-04-15T01:00:12.716Z,1161.00
2023-04-15T01:01:12.736Z,1158.00
2023-04-15T01:02:12.763Z,1150.00
2023-04-15T01:03:12.862Z,1158.00
2023-04-15T01:04:12.850Z,1158.00
2023-04-15T01:05:12.713Z,1138.00
2023-04-15T01:06:12.723Z,1158.00
2023-04-15T01:07:12.724Z,1147.00
2023-04-15T01:08:12.716Z,1146.00
2023-04-15T01:09:12.723Z,1134.00
2023-04-15T01:10:12.733Z,1129.00
2023-04-15T01:11:12.721Z,1140.00
2023-04-15T01:12:12.734Z,1136.00
2023-04-15T01:13:12.736Z,1137.00
2023-04-15T01:14:12.751Z,1146.00
2023-04-15T01:15:12.737Z,1136.00
2023-04-15T01:16:12.801Z,1123.00
2023-04-15T01:17:12.743Z,1133.00
2023-04-15T01:18:12.749Z,1125.00
2023-04-15T01:19:12.747Z,1128.00
2023-04-15T01:20:12.747Z,1144.00
2023-04-15T01:21:12.746Z,1122.00
2023-04-15T01:22:12.780Z,1138.00
2023-04-15T01:23:12.823Z,1126.00
2023-04-15T01:24:12.834Z,1124.00
2023-04-15T01:25:12.826Z,1129.00
2023-04-15T01:26:12.849Z,1142.00
2023-04-15T01:27:12.879Z,1141.00
2023-04-15T01:28:12.865Z,1131.00
2023-04-15T01:29:12.861Z,1129.00
2023-04-15T01:30:12.867Z,1118.00
2023-04-15T01:31:12.964Z,1119.00
2023-04-15T01:32:12.858Z,1132.00
2023-04-15T01:33:12.865Z,1125.00
2023-04-15T01:34:12.866Z,1132.00
2023-04-15T01:35:12.869Z,1132.00
2023-04-15T01:36:12.876Z,1114.00
2023-04-15T01:37:12.862Z,1118.00
2023-04-15T01:38:12.870Z,1121.00
2023-04-15T01:39:12.902Z,1132.00
2023-04-15T01:40:12.948Z,1122.00
2023-04-15T01:41:12.931Z,1126.00
2023-04-15T01:42:12.950Z,1115.00
2023-04-15T01:43:12.961Z,1121.00
2023-04-15T01:44:12.959Z,1125.00
2023-04-15T01:45:12.956Z,1109.00
2023-04-15T01:46:12.975Z,1111.00
2023-04-15T01:47:12.992Z,1109.00
2023-04-15T01:48:12.985Z,1103.00
2023-04-15T01:49:12.993Z,1099.00
2023-04-15T01:50:12.989Z,1104.00
2023-04-15T01:51:12.971Z,1104.00
2023-04-15T01:52:12.964Z,1114.00
2023-04-15T01:53:12.976Z,1115.00
2023-04-15T01:54:12.982Z,1114.00
2023-04-15T01:55:12.960Z,1116.00
2023-04-15T01:56:13.850Z,1113.00
2023-04-15T01:57:12.938Z,1098.00
2023-04-15T01:58:12.943Z,1112.00
2023-04-15T01:59:12.941Z,1107.00
2023-04-15T02:01:31.911Z,500.00
2023-04-15T02:02:31.956Z,500.00
2023-04-15T02:03:31.981Z,500.00
2023-04-15T02:04:31.850Z,500.00
2023-04-15T02:05:31.808Z,500.00
2023-04-15T02:06:31.775Z,507.00
2023-04-15T02:07:31.743Z,508.00
2023-04-15T02:08:31.718Z,500.00
2023-04-15T02:09:31.702Z,509.00
2023-04-15T02:10:31.699Z,503.00
2023-04-15T02:11:31.686Z,504.00
2023-04-15T02:12:31.628Z,503.00
2023-04-15T02:13:31.594Z,501.00
2023-04-15T02:14:31.593Z,505.00
2023-04-15T02:15:31.540Z,505.00
2023-04-15T02:16:31.572Z,501.00
2023-04-15T02:17:31.516Z,508.00
2023-04-15T02:18:31.492Z,506.00
2023-04-15T02:19:31.470Z,506.00
2023-04-15T02:20:31.420Z,509.00
2023-04-15T02:21:31.388Z,510.00
2023-04-15T02:22:31.403Z,508.00
2023-04-15T02:23:31.345Z,503.00
2023-04-15T02:24:31.323Z,501.00
2023-04-15T02:25:31.288Z,497.00
2023-04-15T02:26:31.258Z,503.00
2023-04-15T02:27:31.227Z,508.00
2023-04-15T02:28:31.196Z,512.00
2023-04-15T02:29:31.196Z,513.00
2023-04-15T02:30:31.168Z,512.00
2023-04-15T02:31:31.192Z,508.00
2023-04-15T02:32:31.116Z,509.00
2023-04-15T02:33:31.097Z,509.00
2023-04-15T02:34:31.073Z,510.00
2023-04-15T02:35:31.034Z,511.00
2023-04-15T02:36:31.033Z,512.00
2023-04-15T02:37:31.000Z,501.00
2023-04-15T02:38:30.995Z,506.00
2023-04-15T02:39:30.950Z,502.00
2023-04-15T02:40:30.924Z,502.00
2023-04-15T02:41:30.900Z,501.00
2023-04-15T02:42:30.874Z,502.00
2023-04-15T02:43:30.848Z,505.00
2023-04-15T02:44:30.828Z,499.00
2023-04-15T02:45:30.833Z,503.00
2023-04-15T02:46:30.832Z,504.00
2023-04-15T02:47:30.784Z,510.00
2023-04-15T02:48:30.731Z,506.00
2023-04-15T02:49:30.717Z,506.00
2023-04-15T02:50:30.680Z,500.00
2023-04-15T02:51:30.650Z,503.00
2023-04-15T02:52:30.622Z,502.00
2023-04-15T02:53:30.601Z,510.00
2023-04-15T02:54:30.584Z,508.00
2023-04-15T02:55:30.566Z,504.00
2023-04-15T02:56:30.537Z,504.00
2023-04-15T02:57:30.521Z,508.00
2023-04-15T02:58:30.493Z,510.00
2023-04-15T02:59:30.468Z,506.00
2023-04-15T03:00:30.436Z,509.00
2023-04-15T03:01:30.475Z,499.00
2023-04-15T03:02:30.468Z,506.00
2023-04-15T03:03:30.468Z,508.00
2023-04-15T03:04:30.328Z,506.00
2023-04-15T03:05:30.320Z,512.00
2023-04-15T03:06:30.282Z,509.00
2023-04-15T03:07:30.264Z,504.00
2023-04-15T03:08:30.230Z,503.00
2023-04-15T03:09:30.221Z,503.00
2023-04-15T03:10:30.202Z,509.00
2023-04-15T03:11:30.175Z,511.00
2023-04-15T03:12:30.136Z,509.00
2023-04-15T03:13:30.118Z,503.00
2023-04-15T03:14:30.106Z,507.00
2023-04-15T03:15:30.127Z,505.00
2023-04-15T03:16:30.062Z,501.00
2023-04-15T03:17:30.085Z,505.00
2023-04-15T03:18:30.062Z,509.00
2023-04-15T03:19:30.004Z,503.00
2023-04-15T03:20:30.056Z,504.00
2023-04-15T03:21:29.956Z,508.00
2023-04-15T03:22:29.933Z,503.00
2023-04-15T03:23:29.909Z,506.00
2023-04-15T03:24:29.901Z,503.00
2023-04-15T03:25:29.886Z,503.00
2023-04-15T03:26:29.867Z,507.00
2023-04-15T03:27:29.838Z,506.00
2023-04-15T03:28:29.853Z,500.00
2023-04-15T03:29:29.784Z,504.00
2023-04-15T03:30:29.779Z,500.00
2023-04-15T03:31:29.784Z,509.00
2023-04-15T03:32:29.758Z,511.00
2023-04-15T03:33:29.697Z,504.00
2023-04-15T03:34:29.655Z,503.00
2023-04-15T03:35:29.689Z,501.00
2023-04-15T03:36:29.603Z,505.00
2023-04-15T03:37:29.590Z,510.00
2023-04-15T03:38:29.561Z,510.00
2023-04-15T03:39:29.549Z,503.00
2023-04-15T03:40:29.522Z,507.00
2023-04-15T03:41:29.488Z,509.00
2023-04-15T03:42:29.465Z,504.00
2023-04-15T03:43:29.464Z,509.00
2023-04-15T03:44:29.458Z,508.00
2023-04-15T03:45:29.439Z,502.00
2023-04-15T03:46:29.455Z,504.00
2023-04-15T03:47:29.420Z,503.00
2023-04-15T03:48:29.408Z,501.00
2023-04-15T03:49:29.398Z,501.00
2023-04-15T03:50:29.412Z,505.00
2023-04-15T03:51:29.380Z,500.00
2023-04-15T03:52:29.385Z,503.00
2023-04-15T03:53:29.382Z,502.00
2023-04-15T03:54:29.374Z,514.00
2023-04-15T03:55:29.383Z,508.00
2023-04-15T03:56:29.377Z,502.00
2023-04-15T03:57:29.378Z,500.00
2023-04-15T03:58:29.383Z,502.00
2023-04-15T03:59:29.375Z,505.00
2023-04-15T04:00:29.386Z,509.00
2023-04-15T04:01:29.392Z,501.00
2023-04-15T04:02:29.489Z,500.00
2023-04-15T04:03:29.493Z,506.00
2023-04-15T04:04:29.495Z,507.00
2023-04-15T04:05:29.410Z,512.00
2023-04-15T04:06:29.401Z,515.00
2023-04-15T04:07:29.407Z,511.00
2023-04-15T04:08:29.436Z,504.00
2023-04-15T04:09:29.420Z,505.00
2023-04-15T04:10:29.435Z,510.00
2023-04-15T04:11:29.437Z,518.00
2023-04-15T04:12:29.432Z,507.00
2023-04-15T04:13:29.436Z,501.00
2023-04-15T04:14:29.435Z,509.00
2023-04-15T04:15:29.465Z,513.00
2023-04-15T04:16:29.535Z,515.00
2023-04-15T04:17:29.525Z,513.00
2023-04-15T04:18:29.476Z,507.00
2023-04-15T04:19:29.481Z,500.00
2023-04-15T04:20:29.514Z,503.00
2023-04-15T04:21:29.500Z,504.00
2023-04-15T04:22:29.520Z,509.00
2023-04-15T04:23:29.523Z,507.00
2023-04-15T04:24:29.555Z,501.00
2023-04-15T04:25:29.577Z,500.00
2023-04-15T04:26:29.549Z,509.00
2023-04-15T04:27:29.574Z,504.00
2023-04-15T04:28:29.566Z,508.00
2023-04-15T04:29:29.567Z,500.00
2023-04-15T04:30:29.578Z,501.00
2023-04-15T04:31:29.629Z,503.00
2023-04-15T04:32:29.638Z,506.00
2023-04-15T04:33:29.605Z,512.00
2023-04-15T04:34:29.611Z,511.00
2023-04-15T04:35:29.624Z,505.00
2023-04-15T04:36:29.651Z,500.00
2023-04-15T04:37:29.654Z,505.00
2023-04-15T04:38:29.688Z,506.00
2023-04-15T04:39:29.678Z,503.00
2023-04-15T04:40:29.684Z,506.00
2023-04-15T04:41:29.712Z,500.00
2023-04-15T04:42:29.716Z,501.00
2023-04-15T04:43:29.738Z,504.00
2023-04-15T04:44:29.750Z,510.00
2023-04-15T04:45:29.757Z,513.00
2023-04-15T04:46:29.806Z,512.00
2023-04-15T04:47:29.886Z,500.00
2023-04-15T04:48:29.818Z,503.00
2023-04-15T04:49:29.832Z,500.00
2023-04-15T04:50:29.848Z,503.00
2023-04-15T04:51:29.865Z,505.00
2023-04-15T04:52:29.882Z,514.00
2023-04-15T04:53:29.918Z,503.00
2023-04-15T04:54:29.905Z,501.00
2023-04-15T04:55:29.942Z,508.00
2023-04-15T04:56:29.954Z,511.00
2023-04-15T04:57:29.987Z,517.00
2023-04-15T04:58:29.984Z,511.00
2023-04-15T04:59:30.015Z,507.00
2023-04-15T05:00:30.038Z,503.00
2023-04-15T05:01:30.113Z,505.00
2023-04-15T05:02:30.191Z,506.00
2023-04-15T05:03:30.167Z,515.00
2023-04-15T05:04:30.103Z,501.00
2023-04-15T05:05:30.130Z,505.00
2023-04-15T05:06:30.132Z,502.00
2023-04-15T05:07:30.161Z,503.00
2023-04-15T05:08:30.171Z,511.00
2023-04-15T05:09:30.182Z,512.00
2023-04-15T05:10:30.210Z,501.00
2023-04-15T05:11:30.218Z,502.00
2023-04-15T05:12:30.188Z,503.00
2023-04-15T05:13:30.215Z,504.00
2023-04-15T05:14:30.155Z,507.00
2023-04-15T05:15:30.182Z,507.00
2023-04-15T05:16:30.134Z,499.00
2023-04-15T05:17:30.139Z,502.00
2023-04-15T05:18:30.085Z,506.00
2023-04-15T05:19:30.085Z,509.00
2023-04-15T05:20:30.053Z,512.00
2023-04-15T05:21:30.054Z,508.00
2023-04-15T05:22:30.026Z,500.00
2023-04-15T05:23:30.027Z,504.00
2023-04-15T05:24:29.996Z,505.00
2023-04-15T05:25:29.990Z,509.00
2023-04-15T05:26:29.964Z,511.00
2023-04-15T05:27:29.950Z,508.00
2023-04-15T05:28:29.939Z,502.00
2023-04-15T05:29:29.973Z,505.00
2023-04-15T05:30:29.958Z,505.00
2023-04-15T05:31:29.989Z,509.00
2023-04-15T05:32:30.003Z,508.00
2023-04-15T05:33:30.001Z,501.00
2023-04-15T05:34:30.013Z,503.00
2023-04-15T05:35:30.028Z,510.00
2023-04-15T05:36:30.034Z,512.00
2023-04-15T05:37:30.054Z,517.00
2023-04-15T05:38:30.049Z,511.00
2023-04-15T05:39:30.082Z,505.00
2023-04-15T05:40:30.072Z,500.00
2023-04-15T05:41:30.088Z,504.00
2023-04-15T05:42:30.090Z,513.00
2023-04-15T05:43:30.101Z,509.00
2023-04-15T05:44:30.116Z,502.00
2023-04-15T05:45:30.124Z,500.00
2023-04-15T05:46:30.184Z,504.00
2023-04-15T05:48:49.101Z,500.00
2023-04-15T05:49:49.092Z,500.00
2023-04-15T05:50:49.085Z,500.00
2023-04-15T05:51:49.072Z,500.00
2023-04-15T05:52:49.040Z,500.00
2023-04-15T05:53:49.092Z,507.00
2023-04-15T05:54:49.062Z,509.00
2023-04-15T05:55:48.990Z,508.00
2023-04-15T05:56:49.058Z,500.00
2023-04-15T05:57:48.943Z,501.00
2023-04-15T05:58:48.916Z,505.00
2023-04-15T05:59:48.885Z,515.00
2023-04-15T06:00:48.857Z,522.00
2023-04-15T06:01:48.861Z,519.00
2023-04-15T06:02:48.870Z,503.00
2023-04-15T06:03:48.870Z,500.00
2023-04-15T06:04:48.841Z,502.00
2023-04-15T06:05:48.727Z,503.00
2023-04-15T06:06:48.721Z,505.00
2023-04-15T06:07:48.832Z,505.00
2023-04-15T06:08:48.664Z,499.00
2023-04-15T06:09:48.650Z,502.00
2023-04-15T06:10:48.597Z,501.00
2023-04-15T06:11:48.600Z,505.00
2023-04-15T06:12:48.567Z,506.00
2023-04-15T06:13:48.538Z,505.00
2023-04-15T06:14:48.530Z,500.00
2023-04-15T06:15:48.513Z,509.00
2023-04-15T06:16:48.485Z,508.00
2023-04-15T06:17:48.470Z,520.00
2023-04-15T06:18:48.440Z,507.00
2023-04-15T06:19:48.448Z,500.00
2023-04-15T06:20:48.377Z,507.00
2023-04-15T06:21:48.363Z,511.00
2023-04-15T06:22:48.339Z,515.00
2023-04-15T06:23:48.323Z,517.00
2023-04-15T06:24:48.279Z,506.00
2023-04-15T06:25:48.266Z,501.00
2023-04-15T06:26:48.253Z,506.00
2023-04-15T06:27:48.257Z,508.00
2023-04-15T06:28:48.275Z,515.00
2023-04-15T06:29:48.278Z,514.00
2023-04-15T06:30:48.281Z,500.00
2023-04-15T06:31:48.287Z,502.00
2023-04-15T06:32:48.320Z,511.00
2023-04-15T06:33:48.361Z,506.00
2023-04-15T06:34:48.286Z,517.00
2023-04-15T06:35:48.301Z,509.00
2023-04-15T06:36:48.312Z,501.00
2023-04-15T06:37:48.315Z,501.00
2023-04-15T06:38:48.322Z,510.00
2023-04-15T06:39:48.328Z,514.00
2023-04-15T06:40:48.320Z,527.00
2023-04-15T06:41:48.334Z,516.00
2023-04-15T06:42:48.344Z,501.00
2023-04-15T06:43:48.344Z,502.00
2023-04-15T06:44:48.349Z,503.00
2023-04-15T06:45:48.367Z,520.00
2023-04-15T06:46:48.341Z,510.00
2023-04-15T06:47:48.382Z,501.00
2023-04-15T06:48:48.346Z,500.00
2023-04-15T06:49:48.351Z,509.00
2023-04-15T06:50:48.366Z,518.00
2023-04-15T06:51:48.385Z,529.00
2023-04-15T06:52:48.384Z,512.00
2023-04-15T06:53:48.361Z,503.00
2023-04-15T06:54:48.411Z,508.00
2023-04-15T06:55:48.442Z,510.00
2023-04-15T06:56:48.370Z,524.00
2023-04-15T06:57:48.391Z,515.00
2023-04-15T06:58:48.360Z,500.00
2023-04-15T06:59:48.322Z,497.00
2023-04-15T07:00:48.346Z,500.00
2023-04-15T07:01:48.338Z,505.00
2023-04-15T07:02:48.288Z,518.00
2023-04-15T07:03:48.345Z,507.00
2023-04-15T07:04:48.204Z,500.00
2023-04-15T07:05:48.166Z,500.00
2023-04-15T07:06:48.169Z,502.00
2023-04-15T07:07:48.120Z,517.00
2023-04-15T07:08:48.088Z,512.00
2023-04-15T07:09:48.054Z,504.00
2023-04-15T07:10:48.029Z,500.00
2023-04-15T07:11:48.007Z,511.00
2023-04-15T07:12:47.992Z,517.00
2023-04-15T07:13:47.963Z,527.00
2023-04-15T07:14:47.929Z,507.00
2023-04-15T07:15:47.905Z,502.00
2023-04-15T07:16:47.904Z,513.00
2023-04-15T07:17:47.874Z,516.00
2023-04-15T07:18:47.807Z,524.00
2023-04-15T07:19:47.820Z,508.00
2023-04-15T07:20:47.797Z,503.00
2023-04-15T07:21:47.805Z,509.00
2023-04-15T07:22:47.788Z,510.00
2023-04-15T07:23:47.783Z,522.00
2023-04-15T07:24:47.773Z,517.00
2023-04-15T07:25:47.785Z,501.00
2023-04-15T07:26:47.819Z,508.00
2023-04-15T07:27:47.780Z,509.00
2023-04-15T07:28:47.779Z,524.00
2023-04-15T07:29:47.774Z,526.00
2023-04-15T07:30:47.792Z,506.00
2023-04-15T07:31:47.759Z,500.00
2023-04-15T07:32:47.807Z,508.00
2023-04-15T07:33:47.739Z,518.00
2023-04-15T07:34:47.729Z,535.00
2023-04-15T07:35:47.736Z,518.00
2023-04-15T07:36:47.710Z,500.00
2023-04-15T07:37:47.701Z,512.00
2023-04-15T07:38:47.687Z,511.00
2023-04-15T07:39:47.662Z,523.00
2023-04-15T07:40:47.640Z,530.00
2023-04-15T07:41:47.639Z,517.00
2023-04-15T07:42:47.615Z,512.00
2023-04-15T07:43:47.607Z,524.00
2023-04-15T07:44:47.581Z,524.00
2023-04-15T07:45:47.571Z,536.00
2023-04-15T07:46:47.549Z,527.00
2023-04-15T07:47:47.565Z,531.00
2023-04-15T07:48:47.520Z,550.00
2023-04-15T07:49:47.488Z,550.00
2023-04-15T07:50:47.460Z,545.00
2023-04-15T07:51:47.427Z,540.00
2023-04-15T07:52:47.404Z,547.00
2023-04-15T07:53:47.363Z,550.00
2023-04-15T07:54:47.336Z,551.00
2023-04-15T07:55:47.320Z,552.00
2023-04-15T07:56:47.293Z,552.00
2023-04-15T07:57:47.271Z,560.00
2023-04-15T07:58:47.227Z,570.00
2023-04-15T07:59:47.226Z,572.00
2023-04-15T08:00:47.162Z,560.00
2023-04-15T08:01:47.172Z,570.00
2023-04-15T08:02:47.219Z,579.00
2023-04-15T08:03:47.159Z,582.00
2023-04-15T08:04:47.138Z,585.00
2023-04-15T08:05:47.019Z,575.00
2023-04-15T08:06:46.980Z,582.00
2023-04-15T08:07:47.028Z,596.00
2023-04-15T08:08:46.923Z,597.00
2023-04-15T08:09:46.900Z,607.00
2023-04-15T08:10:46.883Z,610.00
2023-04-15T08:11:46.831Z,611.00
2023-04-15T08:12:46.805Z,614.00
2023-04-15T08:13:46.763Z,615.00
2023-04-15T08:14:46.728Z,616.00
2023-04-15T08:15:46.732Z,619.00
2023-04-15T08:16:46.679Z,624.00
2023-04-15T08:17:46.684Z,620.00
2023-04-15T08:18:46.594Z,622.00
2023-04-15T08:19:46.613Z,627.00
2023-04-15T08:20:46.607Z,624.00
2023-04-15T08:21:46.648Z,623.00
2023-04-15T08:22:46.693Z,629.00
2023-04-15T08:23:46.694Z,631.00
2023-04-15T08:24:46.725Z,623.00
2023-04-15T08:25:46.759Z,622.00
2023-04-15T08:26:46.848Z,628.00
2023-04-15T08:27:46.762Z,628.00
2023-04-15T08:28:46.726Z,628.00
2023-04-15T08:29:46.716Z,627.00
2023-04-15T08:30:46.665Z,628.00
2023-04-15T08:31:46.646Z,630.00
2023-04-15T08:32:46.663Z,632.00
2023-04-15T08:33:46.560Z,633.00
2023-04-15T08:34:46.532Z,631.00
2023-04-15T08:35:46.568Z,628.00
2023-04-15T08:36:46.588Z,623.00
2023-04-15T08:37:46.611Z,625.00
2023-04-15T08:38:46.641Z,623.00
2023-04-15T08:39:46.690Z,620.00
2023-04-15T08:40:46.718Z,622.00
2023-04-15T08:41:46.689Z,618.00
2023-04-15T08:42:46.646Z,605.00
2023-04-15T08:43:46.608Z,606.00
2023-04-15T08:44:46.580Z,605.00
2023-04-15T08:45:46.532Z,609.00
2023-04-15T08:46:46.558Z,597.00
2023-04-15T08:47:46.512Z,599.00
2023-04-15T08:48:46.422Z,590.00
2023-04-15T08:49:46.400Z,567.00
2023-04-15T08:50:46.410Z,567.00
2023-04-15T08:51:46.439Z,575.00
2023-04-15T08:52:46.461Z,552.00
2023-04-15T08:53:46.496Z,572.00
2023-04-15T08:54:46.518Z,575.00
2023-04-15T08:55:46.547Z,554.00
2023-04-15T08:56:46.583Z,553.00
2023-04-15T08:57:46.604Z,557.00
2023-04-15T08:58:46.635Z,562.00
2023-04-15T08:59:46.627Z,563.00
2023-04-15T09:00:46.752Z,568.00
2023-04-15T09:01:46.716Z,562.00
2023-04-15T09:02:46.824Z,550.00
2023-04-15T09:03:46.814Z,567.00
2023-04-15T09:04:46.734Z,561.00
2023-04-15T09:05:46.759Z,564.00
2023-04-15T09:06:46.725Z,561.00
2023-04-15T09:07:46.737Z,564.00
2023-04-15T09:08:46.632Z,569.00
2023-04-15T09:09:46.591Z,556.00
2023-04-15T09:10:46.540Z,546.00
2023-04-15T09:11:46.500Z,560.00
2023-04-15T09:12:46.452Z,566.00
2023-04-15T09:13:46.412Z,566.00
2023-04-15T09:14:46.371Z,560.00
2023-04-15T09:15:46.310Z,567.00
2023-04-15T09:16:47.335Z,572.00
2023-04-15T09:17:46.319Z,586.00
2023-04-15T09:18:46.299Z,586.00
2023-04-15T09:19:46.311Z,583.00
2023-04-15T09:20:46.317Z,581.00
2023-04-15T09:21:46.312Z,580.00
2023-04-15T09:22:46.333Z,576.00
2023-04-15T09:23:46.339Z,574.00
2023-04-15T09:24:46.348Z,596.00
2023-04-15T09:25:46.351Z,601.00
2023-04-15T09:26:46.355Z,606.00
2023-04-15T09:27:46.364Z,610.00
2023-04-15T09:28:46.379Z,594.00
2023-04-15T09:29:46.394Z,597.00
2023-04-15T09:30:47.122Z,602.00
2023-04-15T09:31:46.397Z,599.00
2023-04-15T09:32:46.408Z,606.00
2023-04-15T09:33:46.401Z,609.00
2023-04-15T09:34:46.400Z,613.00
2023-04-15T09:35:46.438Z,614.00
2023-04-15T09:36:46.679Z,607.00
2023-04-15T09:37:46.409Z,593.00
2023-04-15T09:38:46.422Z,582.00
2023-04-15T09:39:46.407Z,589.00
2023-04-15T09:40:46.407Z,591.00
2023-04-15T09:41:46.417Z,584.00
2023-04-15T09:42:46.852Z,596.00
2023-04-15T09:43:46.412Z,592.00
2023-04-15T09:44:46.416Z,596.00
2023-04-15T09:45:46.455Z,586.00
2023-04-15T09:46:46.414Z,590.00
2023-04-15T09:47:46.437Z,593.00
2023-04-15T09:48:46.413Z,599.00
2023-04-15T09:49:46.449Z,603.00
2023-04-15T09:50:46.408Z,586.00
2023-04-15T09:51:57.618Z,597.00
2023-04-15T09:52:47.356Z,597.00
2023-04-15T09:53:46.315Z,599.00
2023-04-15T09:54:46.256Z,599.00
2023-04-15T09:55:46.207Z,593.00
2023-04-15T09:56:46.164Z,604.00
2023-04-15T09:57:46.136Z,596.00
2023-04-15T09:58:46.094Z,586.00
2023-04-15T09:59:46.035Z,581.00
2023-04-15T10:00:45.993Z,581.00
2023-04-15T10:01:46.046Z,582.00
2023-04-15T10:02:45.958Z,570.00
2023-04-15T10:03:45.904Z,577.00
2023-04-15T10:04:45.794Z,583.00
2023-04-15T10:05:45.737Z,587.00
2023-04-15T10:06:45.692Z,595.00
2023-04-15T10:07:45.671Z,594.00
2023-04-15T10:08:45.651Z,598.00
2023-04-15T10:09:45.630Z,587.00
2023-04-15T10:10:45.613Z,595.00
2023-04-15T10:11:45.606Z,594.00
2023-04-15T10:12:45.612Z,581.00
2023-04-15T10:13:45.584Z,583.00
2023-04-15T10:14:45.584Z,584.00
2023-04-15T10:15:45.587Z,582.00
2023-04-15T10:16:45.541Z,587.00
2023-04-15T10:17:45.565Z,589.00
2023-04-15T10:18:45.510Z,580.00
2023-04-15T10:19:45.493Z,583.00
2023-04-15T10:20:45.457Z,591.00
2023-04-15T10:21:45.435Z,595.00
2023-04-15T10:22:45.435Z,596.00
2023-04-15T10:23:45.411Z,594.00
2023-04-15T10:24:45.356Z,594.00
2023-04-15T10:25:45.292Z,569.00
2023-04-15T10:26:45.246Z,581.00
2023-04-15T10:27:45.213Z,585.00
2023-04-15T10:28:45.180Z,590.00
2023-04-15T10:29:45.117Z,568.00
2023-04-15T10:30:45.071Z,575.00
2023-04-15T10:31:45.159Z,576.00
2023-04-15T10:32:44.967Z,569.00
2023-04-15T10:33:44.916Z,570.00
2023-04-15T10:34:44.884Z,558.00
2023-04-15T10:35:44.837Z,555.00
2023-04-15T10:36:44.786Z,555.00
2023-04-15T10:37:44.742Z,562.00
2023-04-15T10:38:44.717Z,541.00
2023-04-15T10:39:44.741Z,546.00
2023-04-15T10:40:44.697Z,560.00
2023-04-15T10:41:44.568Z,576.00
2023-04-15T10:42:44.542Z,569.00
2023-04-15T10:43:44.443Z,561.00
2023-04-15T10:44:44.414Z,564.00
2023-04-15T10:45:44.397Z,575.00
2023-04-15T10:46:44.409Z,565.00
2023-04-15T10:47:44.447Z,553.00
2023-04-15T10:48:44.340Z,550.00
2023-04-15T10:49:44.381Z,538.00
2023-04-15T10:50:44.372Z,546.00
2023-04-15T10:51:44.413Z,566.00
2023-04-15T10:52:44.295Z,546.00
2023-04-15T10:53:44.398Z,553.00
2023-04-15T10:54:44.327Z,567.00
2023-04-15T10:55:44.255Z,540.00
2023-04-15T10:56:44.350Z,552.00
2023-04-15T10:57:44.254Z,529.00
2023-04-15T10:58:44.256Z,547.00
2023-04-15T10:59:44.227Z,545.00
2023-04-15T11:00:44.295Z,546.00
2023-04-15T11:01:44.249Z,558.00
2023-04-15T11:02:44.428Z,557.00
2023-04-15T11:03:44.387Z,550.00
2023-04-15T11:04:44.262Z,543.00
2023-04-15T11:05:44.210Z,537.00
2023-04-15T11:06:44.201Z,531.00
2023-04-15T11:07:44.206Z,519.00
2023-04-15T11:08:44.196Z,533.00
2023-04-15T11:09:44.190Z,547.00
2023-04-15T11:10:44.203Z,549.00
2023-04-15T11:11:44.946Z,547.00
2023-04-15T11:12:44.194Z,522.00
2023-04-15T11:13:44.193Z,542.00
2023-04-15T11:14:44.194Z,549.00
2023-04-15T11:15:44.184Z,529.00
2023-04-15T11:16:44.219Z,522.00
2023-04-15T11:17:46.438Z,519.00
2023-04-15T11:18:44.187Z,527.00
2023-04-15T11:19:44.186Z,537.00
2023-04-15T11:20:44.230Z,540.00
2023-04-15T11:21:44.198Z,542.00
2023-04-15T11:22:44.193Z,539.00
2023-04-15T11:23:44.224Z,541.00
2023-04-15T11:24:44.204Z,550.00
2023-04-15T11:25:44.351Z,550.00
2023-04-15T11:26:44.182Z,539.00
2023-04-15T11:27:44.179Z,534.00
2023-04-15T11:28:44.183Z,550.00
2023-04-15T11:29:44.233Z,540.00
2023-04-15T11:30:44.210Z,542.00
2023-04-15T11:31:44.268Z,538.00
2023-04-15T11:32:44.260Z,532.00
2023-04-15T11:33:44.195Z,523.00
2023-04-15T11:34:44.211Z,539.00
2023-04-15T11:35:44.205Z,528.00
2023-04-15T11:36:44.222Z,537.00
2023-04-15T11:37:44.227Z,522.00
2023-04-15T11:38:44.226Z,526.00
2023-04-15T11:39:44.281Z,532.00
2023-04-15T11:40:46.769Z,516.00
2023-04-15T11:41:44.198Z,534.00
2023-04-15T11:42:49.911Z,520.00
2023-04-15T11:43:45.126Z,509.00
2023-04-15T11:44:44.437Z,521.00
2023-04-15T11:45:44.103Z,525.00
2023-04-15T11:46:45.670Z,530.00
2023-04-15T11:47:44.026Z,526.00
2023-04-15T11:48:43.950Z,511.00
2023-04-15T11:49:43.902Z,527.00
2023-04-15T11:50:43.868Z,537.00
2023-04-15T11:51:43.853Z,523.00
2023-04-15T11:52:43.772Z,533.00
2023-04-15T11:53:43.736Z,549.00
2023-04-15T11:54:43.714Z,569.00
2023-04-15T11:55:43.707Z,550.00
2023-04-15T11:56:43.712Z,556.00
2023-04-15T11:57:43.715Z,543.00
2023-04-15T11:58:43.729Z,531.00
2023-04-15T11:59:46.081Z,541.00
2023-04-15T12:00:43.860Z,538.00
2023-04-15T12:01:43.904Z,547.00
2023-04-15T12:02:43.969Z,528.00
2023-04-15T12:03:43.994Z,523.00
2023-04-15T12:04:43.951Z,525.00
2023-04-15T12:05:43.868Z,538.00
2023-04-15T12:06:43.896Z,546.00
2023-04-15T12:07:43.882Z,542.00
2023-04-15T12:08:43.886Z,524.00
2023-04-15T12:09:43.893Z,541.00
2023-04-15T12:10:43.904Z,529.00
2023-04-15T12:11:43.919Z,536.00
2023-04-15T12:12:43.915Z,544.00
2023-04-15T12:13:43.913Z,536.00
2023-04-15T12:14:43.936Z,542.00
2023-04-15T12:15:43.972Z,555.00
2023-04-15T12:16:48.747Z,557.00
2023-04-15T12:17:51.774Z,557.00
2023-04-15T12:18:44.900Z,557.00
2023-04-15T12:19:43.809Z,558.00
2023-04-15T12:20:43.776Z,560.00
2023-04-15T12:21:43.732Z,552.00
2023-04-15T12:22:43.702Z,557.00
2023-04-15T12:23:43.649Z,563.00
2023-04-15T12:24:43.601Z,563.00
2023-04-15T12:25:43.587Z,543.00
2023-04-15T12:26:43.532Z,550.00